This is the latest recevied weather packets stored in our database for station/object OE-11399. If no packets are shown the sender has not sent any weather packets the latest 10 day(s).
| Time | Temp. | Humidity | Pressure | Rain* | Wind** | Luminosity | Snow |
|---|---|---|---|---|---|---|---|
| 1787664325 | 20.56° C | 60% | 849.5 hPa | 0 mm | - | 315 W/m² | - |
| 1787663498 | 20.56° C | 59% | 849.6 hPa | 0 mm | - | 271 W/m² | - |
| 1787663125 | 20.56° C | 58% | 849.6 hPa | 0 mm | - | 411 W/m² | - |
| 1787654497 | 17.78° C | 77% | 849.7 hPa | 0 mm | - | 410 W/m² | - |
| 1787654116 | 17.22° C | 78% | 849.6 hPa | 0.25 mm | - | 656 W/m² | - |
| 1787652322 | 16.11° C | 84% | 849.7 hPa | 0.25 mm | - | 410 W/m² | - |
| 1787651723 | 16.11° C | 84% | 849.7 hPa | 0.25 mm | - | 472 W/m² | - |
| 1787650897 | 15.56° C | 87% | 849.7 hPa | 0.25 mm | - | 431 W/m² | - |
| 1787650524 | 15.56° C | 89% | 849.7 hPa | 0.25 mm | - | 355 W/m² | - |
| 1787649924 | 15° C | 88% | 849.6 hPa | 0.25 mm | - | 260 W/m² | - |
| 1787649096 | 15.56° C | 89% | 849.8 hPa | 0.51 mm | - | 403 W/m² | - |
| 1787648724 | 15° C | 89% | 849.7 hPa | 1.02 mm | - | 519 W/m² | - |
| 1787648124 | 15° C | 92% | 849.8 hPa | 1.02 mm | - | 396 W/m² | - |
| 1787647296 | 13.89° C | 91% | 849.6 hPa | 1.27 mm | - | 321 W/m² | - |
| 1787646924 | 13.89° C | 92% | 849.7 hPa | 1.52 mm | - | 219 W/m² | - |
| 1787646324 | 13.33° C | 92% | 849.9 hPa | 1.52 mm | - | 164 W/m² | - |
| 1787645496 | 13.33° C | 93% | 849.9 hPa | 1.52 mm | - | 109 W/m² | - |
| 1787645124 | 13.33° C | 94% | 849.9 hPa | 1.27 mm | - | 82 W/m² | - |
| 1787644524 | 13.33° C | 94% | 849.7 hPa | 0.76 mm | - | 48 W/m² | - |
| 1787643698 | 13.33° C | 93% | 849.6 hPa | 0.76 mm | - | 41 W/m² | - |
| 1787643325 | 13.33° C | 92% | 849.5 hPa | 0.51 mm | - | 34 W/m² | - |
| 1787642725 | 13.33° C | 92% | 849.7 hPa | 0.25 mm | - | 48 W/m² | - |
| 1787641898 | 13.33° C | 91% | 849.9 hPa | 0 mm | - | 48 W/m² | - |
| 1787641524 | 13.33° C | 91% | 849.6 hPa | 0 mm | - | 48 W/m² | - |
| 1787640924 | 13.33° C | 92% | 849.6 hPa | 0 mm | - | 41 W/m² | - |
* Rain latest hour (hover to see other rain measurements)
** Current wind speed in m/s (hover to see current wind gust speed)